• Join FlightAware (Why Join?)
  • Login
  • US Flag 
03:22AM EDT


 

Airport Tracker/Info


-or-


 

Live Flight TrackerFlight Track Log ✈ AAL1459 ✈ 19-Apr-2013 ✈ KORD - KRNO

Flight Track Log - Related Links

Times and Time Zones

All times are in EDT time to prevent confusion due to time zone crossing. See the AAL1459 flight status page for this flight to view local times or setup timezone preferences in your user account.

Time Position Orientation Groundspeed Altitude Reporting Facility
EDT Latitude Longitude Course Direction KTS MPH feet Rate Location/Type
06:26PM 41.9860 -87.9280 321° Northwest 155 178 1,200  Level FlightAware
06:26PM 41.9960 -87.9420 314° West 146 168 2,300 2,520 Climbing FlightAware
06:27PM 41.9970 -87.9550 276° West 154 177 2,700 1,620 Climbing FlightAware
06:27PM 41.9960 -87.9840 267° West 193 222 3,400 1,800 Climbing FlightAware
06:28PM 41.9940 -88.0210 266° West 226 260 4,400 2,640 Climbing FlightAware
06:28PM 41.9930 -88.0440 267° West 228 262 5,400 3,600 Climbing FlightAware
06:28PM 41.9910 -88.0800 266° West 232 267 6,800 3,360 Climbing FlightAware
06:29PM 41.9880 -88.1250 265° West 239 275 8,500 3,060 Climbing FlightAware
06:29PM 41.9870 -88.1460 266° West 249 287 9,100 2,820 Climbing FlightAware
06:30PM 41.9840 -88.2050 266° West 252 290 11,100 2,760 Climbing FlightAware
06:30PM 41.9800 -88.2660 265° West 270 311 12,800 1,800 Climbing FlightAware
06:31PM 41.9960 -88.3600 283° West 335 386 13,700 1,800 Climbing FlightAware
06:32PM 42.0120 -88.4420 285° West 348 400 15,400 2,640 Climbing FlightAware
06:33PM 42.0300 -88.5350 285° West 356 410 17,500 2,640 Climbing FlightAware
06:33PM 42.0480 -88.6220 286° West 364 419 19,200 2,400 Climbing FlightAware
06:34PM 42.0640 -88.7180 283° West 368 423 20,900 2,160 Climbing FlightAware
06:35PM 42.0640 -88.8120 270° West 377 434 22,300 1,920 Climbing FlightAware
06:35PM 42.0630 -88.9120 269° West 390 449 23,500 1,860 Climbing FlightAware
06:36PM 42.0640 -89.0190 271° West 395 455 25,000 1,860 Climbing FlightAware
06:37PM 42.0660 -89.1080 272° West 402 463 26,000 1,560 Climbing FlightAware
06:37PM 42.0680 -89.2190 271° West 411 473 27,100 1,320 Climbing FlightAware
06:38PM 42.0700 -89.3370 271° West 422 486 28,000 1,260 Climbing FlightAware
06:39PM 42.0730 -89.4410 272° West 429 494 28,900 1,320 Climbing FlightAware
06:40PM 42.0760 -89.5630 272° West 432 497 29,900 1,500 Climbing FlightAware
06:40PM 42.0780 -89.6660 272° West 424 488 31,100 1,740 Climbing FlightAware
06:41PM 42.0800 -89.7880 271° West 420 483 32,400 1,620 Climbing FlightAware
06:42PM 42.0820 -89.8920 272° West 415 478 33,400 1,320 Climbing FlightAware
06:42PM 42.0850 -89.9880 272° West 414 476 34,200 1,020 Climbing FlightAware
06:43PM 42.0940 -90.0900 277° West 416 479 34,800 840 Climbing FlightAware
06:44PM 42.1040 -90.2060 277° West 420 483 35,400 780 Climbing FlightAware
06:44PM 42.1140 -90.3270 276° West 420 483 36,000 420 Climbing FlightAware
06:45PM 42.1220 -90.4290 276° West 413 475 36,000  Level FlightAware
06:46PM 42.1310 -90.5450 276° West 413 475 36,000  Level FlightAware
06:47PM 42.1380 -90.6460 275° West 412 474 36,000  Level FlightAware
06:47PM 42.1440 -90.7250 276° West 411 473 36,000  Level FlightAware
06:48PM 42.1520 -90.8270 276° West 409 471 36,000  Level FlightAware
06:48PM 42.1590 -90.9230 276° West 407 468 36,000  Level FlightAware
06:49PM 42.1680 -91.0390 276° West 406 467 36,000  Level FlightAware
06:50PM 42.1730 -91.1050 276° West 406 467 36,000  Level FlightAware
06:50PM 42.1800 -91.2120 275° West 407 468 36,000  Level FlightAware
06:51PM 42.1860 -91.2910 276° West 408 470 36,000  Level FlightAware
06:52PM 42.1950 -91.4220 275° West 411 473 36,000  Level FlightAware
06:52PM 42.2020 -91.5280 275° West 412 474 36,000  Level FlightAware
06:53PM 42.2100 -91.6340 276° West 414 476 36,000  Level FlightAware
06:54PM 42.2170 -91.7480 275° West 415 478 36,000  Level FlightAware
06:54PM 42.2250 -91.8530 276° West 415 478 36,000  Level FlightAware
06:55PM 42.2320 -91.9690 275° West 416 479 36,000  Level FlightAware
06:56PM 42.2390 -92.0720 275° West 416 479 36,000  Level FlightAware
06:57PM 42.2450 -92.1780 274° West 416 479 36,000  Level FlightAware
06:57PM 42.2530 -92.2940 275° West 415 478 36,000  Level FlightAware
06:58PM 42.2590 -92.3960 275° West 413 475 36,000  Level FlightAware
06:59PM 42.2660 -92.5130 275° West 412 474 36,000  Level FlightAware
06:59PM 42.2720 -92.6150 275° West 410 472 36,000  Level FlightAware
07:00PM 42.2770 -92.7000 275° West 410 472 36,000  Level FlightAware
07:01PM 42.2840 -92.8260 274° West 409 471 36,000  Level FlightAware
07:01PM 42.2900 -92.9280 275° West 410 472 36,000  Level FlightAware
07:02PM 42.2960 -93.0280 275° West 410 472 36,000  Level FlightAware
07:03PM 42.3000 -93.1150 274° West 410 472 36,000  Level FlightAware
07:03PM 42.3050 -93.2020 274° West 410 472 36,000  Level FlightAware
07:04PM 42.3100 -93.3110 274° West 410 472 36,000  Level FlightAware
07:05PM 42.3150 -93.3980 274° West 410 472 36,000  Level FlightAware
07:06PM 42.3190 -93.4850 274° West 410 472 36,000  Level FlightAware
07:06PM 42.3240 -93.5720 274° West 410 472 36,000  Level FlightAware
07:07PM 42.3280 -93.6590 274° West 410 472 36,000  Level FlightAware
07:08PM 42.3340 -93.7680 274° West 410 472 36,000  Level FlightAware
07:08PM 42.3380 -93.8550 274° West 410 472 36,000  Level FlightAware
07:09PM 42.3430 -93.9420 274° West 410 472 36,000  Level FlightAware
07:10PM 42.3470 -94.0290 274° West 410 472 36,000  Level FlightAware
07:10PM 42.3520 -94.1160 274° West 410 472 36,000  Level FlightAware
07:11PM 42.3570 -94.2250 274° West 410 472 36,000  Level FlightAware
07:13PM 42.3736 -94.6167 274° West 397 457 36,000  Level Minneapolis Center
07:14PM 42.3786 -94.7650 273° West 396 456 36,000  Level Minneapolis Center
07:15PM 42.3853 -94.9128 274° West 395 455 36,000  Level Minneapolis Center
07:16PM 42.3922 -95.0619 274° West 398 458 36,000  Level Minneapolis Center
07:17PM 42.3975 -95.2114 273° West 398 458 36,000  Level Minneapolis Center
07:18PM 42.4025 -95.3589 273° West 396 456 36,000  Level Minneapolis Center
07:19PM 42.4075 -95.5036 273° West 390 449 36,000  Level Minneapolis Center
07:20PM 42.4128 -95.6769 272° West 386 444 36,000  Level Minneapolis Center
07:21PM 42.4169 -95.8186 272° West 381 438 36,000  Level Minneapolis Center
07:22PM 42.4206 -95.9658 272° West 388 447 36,000  Level Minneapolis Center
07:23PM 42.4267 -96.1119 273° West 390 449 36,000  Level Minneapolis Center
07:24PM 42.4303 -96.2581 272° West 390 449 36,000  Level Minneapolis Center
07:25PM 42.4336 -96.4022 272° West 388 447 36,000  Level Minneapolis Center
07:26PM 42.4381 -96.5761 272° West 387 445 36,000  Level Minneapolis Center
07:27PM 42.4411 -96.7208 272° West 387 445 36,000  Level Minneapolis Center
07:28PM 42.4453 -96.8931 272° West 384 442 36,000  Level Minneapolis Center
07:29PM 42.4486 -97.0367 272° West 383 441 36,000  Level Minneapolis Center
07:30PM 42.4506 -97.1792 271° West 382 440 36,000  Level Minneapolis Center
07:31PM 42.4539 -97.3208 272° West 379 436 36,000  Level Minneapolis Center
07:32PM 42.4569 -97.4947 271° West 384 442 36,000  Level Minneapolis Center
07:33PM 42.4592 -97.6394 271° West 386 444 36,000  Level Minneapolis Center
07:34PM 42.4622 -97.7839 272° West 385 443 36,000  Level Minneapolis Center
07:35PM 42.4631 -97.9200 271° West 390 449 36,000  Level Minneapolis Center
07:36PM 42.4650 -98.0972 271° West 394 453 36,000  Level Minneapolis Center
07:37PM 42.4669 -98.2453 271° West 394 453 36,000  Level Minneapolis Center
07:39PM 42.4686 -98.3947 271° West 397 457 36,000  Level Minneapolis Center
07:40PM 42.4692 -98.5419 270° West 392 451 36,000  Level Minneapolis Center
07:41PM 42.4703 -98.6883 271° West 390 449 36,000  Level Minneapolis Center
07:42PM 42.4742 -98.8356 272° West 392 451 36,000  Level Minneapolis Center
07:43PM 42.4769 -98.9836 272° West 393 452 36,000  Level Minneapolis Center
07:44PM 42.4806 -99.1603 272° West 393 452 36,000 300 Level Minneapolis Center
07:45PM 42.4836 -99.3072 272° West 393 452 36,700 720 Climbing Minneapolis Center
07:45PM 42.4853 -99.4258 271° West 393 452 37,400 660 Climbing Denver Center
07:47PM 42.4872 -99.5753 271° West 396 456 38,000 240 Climbing Denver Center
07:48PM 42.4900 -99.7256 271° West 398 458 38,000  Level Denver Center
07:48PM 42.4908 -99.7550 272° West 399 459 38,000  Level Minneapolis Center
07:49PM 42.4914 -99.8769 270° West 402 463 38,000  Level Denver Center
07:50PM 42.4936 -100.0375 271° West 400 460 38,000  Level Denver Center
07:51PM 42.4961 -100.2058 271° West 402 463 38,000  Level Denver Center
07:52PM 42.4978 -100.3483 271° West 399 459 38,000  Level Denver Center
07:53PM 42.4992 -100.5133 271° West 393 452 38,000  Level Denver Center
07:54PM 42.4997 -100.6583 270° West 401 461 38,000  Level Denver Center
07:55PM 42.5000 -100.8256 270° West 399 459 38,000  Level Denver Center
07:56PM 42.5011 -100.9703 271° West 400 460 38,000  Level Denver Center
07:57PM 42.5014 -101.1406 270° West 404 465 38,000  Level Denver Center
07:58PM 42.5017 -101.2872 270° West 406 467 38,000  Level Denver Center
07:59PM 42.5017 -101.4322 270° West 405 466 38,000  Level Denver Center
08:00PM 42.5028 -101.6006 271° West 403 464 38,000  Level Denver Center
08:06PM 42.5081 -102.5350 271° West 402 463 38,000  Level FlightAware ADS-B
08:06PM 42.5090 -102.6130 271° West 400 460 38,000  Level FlightAware ADS-B
08:07PM 42.5098 -102.6900 271° West 397 457 38,000  Level FlightAware ADS-B
08:08PM 42.5107 -102.7670 271° West 397 457 38,000  Level FlightAware ADS-B
08:08PM 42.5117 -102.8670 271° West 396 456 38,000  Level FlightAware ADS-B
08:09PM 42.5125 -102.9420 271° West 396 456 38,000  Level FlightAware ADS-B
08:09PM 42.5132 -103.0160 271° West 396 456 38,000  Level FlightAware ADS-B
08:10PM 42.5137 -103.0920 271° West 398 458 38,000  Level FlightAware ADS-B
08:10PM 42.5144 -103.1810 271° West 399 459 38,000  Level FlightAware ADS-B
08:11PM 42.5148 -103.2560 270° West 400 460 38,000  Level FlightAware ADS-B
08:11PM 42.5155 -103.3320 271° West 400 460 38,000  Level FlightAware ADS-B
08:12PM 42.5161 -103.4090 271° West 400 460 38,000  Level FlightAware ADS-B
08:12PM 42.5164 -103.4840 270° West 399 459 38,000  Level FlightAware ADS-B
08:13PM 42.5167 -103.5740 270° West 399 459 38,000  Level FlightAware ADS-B
08:14PM 42.5169 -103.6650 270° West 400 460 38,000  Level FlightAware ADS-B
08:14PM 42.5171 -103.7410 270° West 399 459 38,000  Level FlightAware ADS-B
08:15PM 42.5172 -103.8180 270° West 399 459 38,000  Level FlightAware ADS-B
08:15PM 42.5173 -103.8950 270° West 399 459 38,000  Level FlightAware ADS-B
08:16PM 42.5174 -103.9710 270° West 400 460 38,000  Level FlightAware ADS-B
08:16PM 42.5174 -104.0490 270° West 400 460 38,000  Level FlightAware ADS-B
08:17PM 42.5173 -104.1260 270° West 400 460 38,000  Level FlightAware ADS-B
08:17PM 42.5172 -104.2020 270° West 401 461 38,000  Level FlightAware ADS-B
08:18PM 42.5170 -104.2770 270° West 401 461 38,000  Level FlightAware ADS-B
08:18PM 42.5168 -104.3570 270° West 401 461 38,000  Level FlightAware ADS-B
08:19PM 42.5165 -104.4350 270° West 401 461 38,000  Level FlightAware ADS-B
08:19PM 42.5162 -104.5210 270° West 402 463 38,000  Level FlightAware ADS-B
08:20PM 42.5157 -104.5990 270° West 401 461 38,000  Level FlightAware ADS-B
08:20PM 42.5153 -104.6760 270° West 401 461 38,000  Level FlightAware ADS-B
08:21PM 42.5148 -104.7610 270° West 402 463 38,000  Level FlightAware ADS-B
08:21PM 42.5142 -104.8450 269° West 401 461 38,000  Level FlightAware ADS-B
08:22PM 42.5136 -104.9210 269° West 400 460 38,000  Level FlightAware ADS-B
08:22PM 42.5130 -104.9990 269° West 401 461 38,000  Level FlightAware ADS-B
08:23PM 42.5124 -105.0760 269° West 404 465 38,000  Level FlightAware ADS-B
08:23PM 42.5116 -105.1530 269° West 406 467 38,000  Level FlightAware ADS-B
08:24PM 42.5105 -105.2530 269° West 407 468 38,000  Level FlightAware ADS-B
08:25PM 42.5094 -105.3467 269° West 405 466 38,000  Level Denver Center
08:26PM 42.5069 -105.4922 269° West 403 464 38,000  Level Denver Center
08:27PM 42.5056 -105.6636 269° West 407 468 38,000  Level Denver Center
08:28PM 42.5022 -105.8083 268° West 404 465 38,000  Level Denver Center
08:29PM 42.4997 -105.9800 269° West 406 467 38,000  Level Denver Center
08:30PM 42.4928 -106.1256 266° West 406 467 38,000  Level Denver Center
08:31PM 42.4842 -106.2711 265° West 406 467 38,000  Level Denver Center
08:32PM 42.4736 -106.4389 265° West 401 461 38,000  Level Denver Center
08:33PM 42.4647 -106.5828 265° West 402 463 38,000  Level Denver Center
08:34PM 42.4544 -106.7489 265° West 399 459 38,000  Level Denver Center
08:35PM 42.4458 -106.8964 266° West 396 456 38,000  Level Denver Center
08:36PM 42.4361 -107.0369 265° West 394 453 38,000  Level Denver Center
08:37PM 42.4275 -107.1767 265° West 391 450 38,000  Level Denver Center
08:38PM 42.4156 -107.3406 264° West 394 453 38,000  Level Denver Center
08:38PM 42.4114 -107.3881 263° West 394 453 38,000  Level Salt Lake Center
08:39PM 42.4008 -107.5525 265° West 394 453 38,000  Level Salt Lake Center
08:41PM 42.3900 -107.6944 264° West 396 456 38,000  Level Salt Lake Center
08:42PM 42.3806 -107.8378 265° West 401 461 38,000  Level Salt Lake Center
08:43PM 42.3675 -108.0056 264° West 403 464 38,000  Level Salt Lake Center
08:44PM 42.3578 -108.1497 265° West 405 466 38,000  Level Salt Lake Center
08:45PM 42.3450 -108.3186 264° West 406 467 38,000  Level Salt Lake Center
08:46PM 42.3358 -108.4642 265° West 408 470 38,000  Level Salt Lake Center
08:47PM 42.3208 -108.6300 263° West 400 460 38,000  Level Salt Lake Center
08:48PM 42.3094 -108.7708 264° West 397 457 38,000  Level Salt Lake Center
08:49PM 42.2944 -108.9378 263° West 402 463 38,000  Level Salt Lake Center
08:50PM 42.2833 -109.0808 264° West 403 464 38,000  Level Salt Lake Center
08:51PM 42.2692 -109.2500 264° West 407 468 38,000  Level Salt Lake Center
08:52PM 42.2564 -109.3925 263° West 403 464 38,000  Level Salt Lake Center
08:53PM 42.2442 -109.5353 263° West 403 464 38,000  Level Salt Lake Center
08:54PM 42.2289 -109.7019 263° West 403 464 38,000  Level Salt Lake Center
08:55PM 42.2161 -109.8456 263° West 404 465 38,000  Level Salt Lake Center
08:56PM 42.2003 -110.0136 263° West 405 466 38,000  Level Salt Lake Center
09:01PM 42.1230 -110.8270 263° West 412 474 38,000  Level FlightAware
09:02PM 42.1100 -110.9570 262° West 413 475 38,000  Level FlightAware
09:03PM 42.0990 -111.0610 262° West 411 473 38,000  Level FlightAware
09:04PM 42.0880 -111.1710 262° West 407 468 38,000  Level FlightAware
09:04PM 42.0780 -111.2740 263° West 407 468 38,000  Level FlightAware
09:05PM 42.0670 -111.3770 262° West 408 470 38,000  Level FlightAware
09:06PM 42.0550 -111.4900 262° West 406 467 38,000  Level FlightAware
09:07PM 42.0420 -111.6120 262° West 403 464 38,000  Level FlightAware
09:07PM 42.0310 -111.7110 262° West 405 466 38,000  Level FlightAware
09:08PM 42.0200 -111.8100 262° West 406 467 38,000  Level FlightAware
09:09PM 42.0080 -111.9230 262° West 405 466 38,000  Level FlightAware
09:09PM 41.9940 -112.0240 259° West 407 468 38,000  Level FlightAware
09:10PM 41.9690 -112.1340 253° West 404 465 38,000  Level FlightAware
09:11PM 41.9480 -112.2280 253° West 404 465 38,000  Level FlightAware
09:13PM 41.8570 -112.6160 253° West 403 464 38,000  Level FlightAware
09:14PM 41.8290 -112.7360 253° West 405 466 38,000  Level FlightAware
09:15PM 41.8060 -112.8330 252° West 405 466 38,000  Level FlightAware
09:15PM 41.7910 -112.8950 252° West 406 467 38,000  Level FlightAware
09:16PM 41.7660 -113.0010 252° West 409 471 38,000  Level FlightAware
09:17PM 41.7420 -113.0980 252° West 413 475 38,000  Level FlightAware
09:18PM 41.7160 -113.2070 252° West 414 476 38,000  Level FlightAware
09:18PM 41.6920 -113.3050 252° West 415 478 38,000  Level FlightAware
09:19PM 41.6680 -113.4030 252° West 416 479 38,000  Level FlightAware
09:20PM 41.6420 -113.5130 252° West 413 475 38,000  Level FlightAware
09:20PM 41.6190 -113.6040 251° West 411 473 38,000  Level FlightAware
09:21PM 41.5960 -113.7000 252° West 411 473 38,000  Level FlightAware
09:22PM 41.5680 -113.8130 252° West 409 471 38,000  Level FlightAware
09:22PM 41.5450 -113.9020 251° West 408 470 38,000  Level FlightAware
09:23PM 41.5130 -114.0310 252° West 409 471 38,000  Level FlightAware
09:24PM 41.4870 -114.1360 252° West 406 467 38,000  Level FlightAware
09:25PM 41.4600 -114.2430 251° West 406 467 38,000  Level FlightAware
09:25PM 41.4390 -114.3240 251° West 406 467 38,000  Level FlightAware
09:26PM 41.4180 -114.4050 251° West 406 467 38,000  Level FlightAware
09:27PM 41.3970 -114.4850 251° West 406 467 38,000  Level FlightAware
09:27PM 41.3760 -114.5660 251° West 406 467 38,000  Level FlightAware
09:28PM 41.3500 -114.6660 251° West 406 467 38,000  Level FlightAware
09:29PM 41.3300 -114.7470 252° West 406 467 38,000  Level FlightAware
09:30PM 41.3090 -114.8270 251° West 406 467 38,000  Level FlightAware
09:30PM 41.2880 -114.9070 251° West 406 467 38,000  Level FlightAware
09:31PM 41.2670 -114.9880 251° West 406 467 38,000  Level FlightAware
09:32PM 41.2460 -115.0680 251° West 406 467 38,000  Level FlightAware
09:32PM 41.2200 -115.1680 251° West 406 467 38,000  Level FlightAware
09:33PM 41.2000 -115.2490 252° West 406 467 38,000  Level FlightAware
09:34PM 41.1790 -115.3290 251° West 406 467 38,000  Level FlightAware
09:35PM 41.0931 -115.6578 251° West 412 474 38,000  Level Oakland Center
09:36PM 41.0556 -115.7928 250° West 410 472 38,000  Level Oakland Center
09:37PM 41.0133 -115.9519 251° West 410 472 38,000  Level Oakland Center
09:38PM 40.9761 -116.0872 250° West 410 472 38,000  Level Oakland Center
09:39PM 40.9253 -116.2450 247° West 416 479 38,000  Level Oakland Center
09:40PM 40.8808 -116.3775 246° West 414 476 38,000  Level Oakland Center
09:41PM 40.8375 -116.5094 247° West 410 472 38,000  Level Oakland Center
09:42PM 40.7864 -116.6633 246° West 411 473 38,000  Level Oakland Center
09:43PM 40.7433 -116.7939 247° West 409 471 38,000  Level Oakland Center
09:44PM 40.6931 -116.9450 246° West 406 467 38,000  Level Oakland Center
09:45PM 40.6494 -117.0744 246° West 407 468 38,000  Level Oakland Center
09:46PM 40.5978 -117.2250 246° West 407 468 38,000  Level Oakland Center
09:47PM 40.5539 -117.3536 246° West 404 465 38,000  Level Oakland Center
09:48PM 40.5092 -117.4808 245° Southwest 404 465 38,000 -240 Level Oakland Center
09:49PM 40.4583 -117.6317 246° West 405 466 37,600 -720 Descending Oakland Center
09:50PM 40.4144 -117.7567 245° Southwest 396 456 36,600 -1,080 Descending Oakland Center
09:51PM 40.3644 -117.9011 246° West 391 450 35,500 -1,020 Descending Oakland Center
09:52PM 40.3219 -118.0219 245° Southwest 384 442 34,600 -900 Descending Oakland Center
09:53PM 40.2803 -118.1417 246° West 383 441 33,700 -900 Descending Oakland Center
09:54PM 40.2347 -118.2697 245° Southwest 387 445 32,800 -1,080 Descending Oakland Center
09:55PM 40.1811 -118.4214 245° Southwest 385 443 31,600 -1,380 Descending Oakland Center
09:56PM 40.1333 -118.5514 244° Southwest 394 453 30,100 -1,920 Descending Oakland Center
09:57PM 40.0575 -118.6625 228° Southwest 417 480 27,800 -2,340 Descending Oakland Center
09:58PM 39.9744 -118.7639 223° Southwest 411 473 25,400 -2,280 Descending Oakland Center
09:59PM 39.8947 -118.8611 223° Southwest 399 459 23,200 -2,160 Descending Oakland Center
10:00PM 39.8172 -118.9550 223° Southwest 386 444 21,100 -2,160 Descending Oakland Center
10:01PM 39.7406 -119.0478 223° Southwest 379 436 18,900 -2,100 Descending Oakland Center
10:02PM 39.6664 -119.1378 223° Southwest 370 426 16,900 -1,680 Descending Oakland Center
10:03PM 39.5917 -119.2275 223° Southwest 369 425 15,500 -1,500 Descending Oakland Center
10:04PM 39.5039 -119.3328 223° Southwest 361 415 13,900 -1,260 Descending Oakland Center
10:05PM 39.4361 -119.4147 223° Southwest 342 394 13,000 -960 Descending Oakland Center
10:06PM 39.3736 -119.4889 223° Southwest 312 359 12,000 -1,260 Descending Oakland Center
10:07PM 39.3167 -119.5603 224° Southwest 298 343 10,500 -900 Descending Oakland Center
10:13PM 39.3910 -119.7670 224° Southwest 188 216 6,400 -780 Descending FlightAware
10:13PM 39.4100 -119.7670 360° North 175 201 6,000 -1,080 Descending FlightAware
10:14PM 39.4320 -119.7670 360° North 164 189 5,500 -960 Descending FlightAware
10:14PM 39.4470 -119.7670 360° North 159 183 5,200 -720 Descending FlightAware